Todd G — WRC6671 — position and weather

sailwx.info

Track history (hours):
 
Tides and Currents Weather Stations Pressure Air Temp Water Temp Dewpoint Dewpoint Depression Visibility Wind Speed Wind Dir Waves Ship Positions

Todd G

Owner: Harbor Towing & Fleeting, Inc., Metairie, LA. More information available from US FCC via Universal Licensing System and Coast Guard Vessel Documentation Center.

Last reported at 2015-Aug-01 22:31 UTC. Time now 2015-Aug-02 04:14 UTC.
Position N 29°55' W 089°58'.

Length 16 m.

Type: Towing. MMSI: 366988470.

Date/timePositionNaut miles runAvg speedWind from/ knotsBaromVisibWave heightAir tempDewpointWater temp
2015-Aug-01 22:31N 29°55' W 089°58'1 0.7
2015-Aug-01 21:30N 29°56' W 089°59'3 3.6
2015-Aug-01 20:32N 29°58' W 090°02'1 1.4
2015-Aug-01 19:33N 29°59' W 090°01'0 0.1
2015-Aug-01 18:32N 29°59' W 090°01'5 1.4
2015-Aug-01 15:24N 30°00' W 089°56'5 5.7
2015-Aug-01 14:33N 29°59' W 090°01'2 1.7
2015-Aug-01 13:33N 29°57' W 090°01'1 0.8
2015-Aug-01 12:33N 29°57' W 090°01'1 1.2
2015-Aug-01 11:31N 29°56' W 089°60'3 2.5
2015-Aug-01 10:30N 29°58' W 090°02'3 2.7
2015-Aug-01 09:29N 29°60' W 089°59'3 2.9
2015-Aug-01 08:31N 29°58' W 090°02'1 1.3
2015-Aug-01 07:33N 29°57' W 090°01'1 0.6
2015-Aug-01 05:15N 29°58' W 090°02'1 0.0
2015-Jul-31 15:25N 29°57' W 090°02'1 0.1
2015-Jul-31 01:33N 29°57' W 090°03'4 3.6
2015-Jul-31 00:31N 29°54' W 090°05'0 0.0
2015-Jul-30 23:31N 29°54' W 090°05'0 0.0
2015-Jul-30 22:13N 29°54' W 090°05'  
2015-Jul-28 17:27N 29°56' W 090°00'2 2.1
2015-Jul-28 16:33N 29°58' W 090°02'1 1.2
2015-Jul-28 15:33N 29°59' W 090°01'0 0.4
2015-Jul-28 14:33N 29°59' W 090°01'2 1.5
2015-Jul-28 13:33N 29°58' W 090°02'1 0.9
2015-Jul-28 12:32N 29°57' W 090°01'1 0.0
2015-Jul-27 11:25N 29°56' W 090°00'2 0.3
2015-Jul-27 05:18N 29°55' W 089°59'4 1.0
2015-Jul-27 01:33N 29°58' W 090°02'2 1.9
2015-Jul-27 00:20N 29°60' W 090°00'0 0.2
2015-Jul-26 23:33N 29°60' W 090°00'2 2.2
2015-Jul-26 22:29N 29°58' W 090°02'1 0.9
2015-Jul-26 21:30N 29°57' W 090°01'1 0.9
2015-Jul-26 20:29N 29°56' W 090°00'0 0.0
2015-Jul-26 19:33N 29°56' W 090°00'2 1.9
2015-Jul-26 18:30N 29°58' W 090°02'7 3.2
2015-Jul-26 16:17N 30°01' W 089°54'4 5.9
2015-Jul-26 15:34N 29°60' W 089°59'3 2.8
2015-Jul-26 14:27N 29°58' W 090°02'1 0.9
2015-Jul-26 13:19N 29°57' W 090°01'1 0.0
2015-Jul-25 20:24N 29°57' W 090°02'1 0.6
2015-Jul-25 19:27N 29°58' W 090°02'3 3.0
2015-Jul-25 18:32N 29°60' W 089°59'0 0.5
2015-Jul-25 17:32N 29°60' W 089°59'3 1.1
2015-Jul-25 14:16N 29°57' W 090°01'0 0.0
2015-Jul-25 12:07N 29°57' W 090°01'1 1.5
2015-Jul-25 11:29N 29°58' W 090°02'3 2.4
2015-Jul-25 10:22N 29°60' W 089°59'3 2.6
2015-Jul-25 09:16N 29°58' W 090°02'1 1.5
2015-Jul-25 08:23N 29°57' W 090°01'0 0.4
2015-Jul-25 07:06N 29°56' W 090°00'0 0.0
2015-Jul-25 06:22N 29°56' W 090°00'0 0.0
2015-Jul-25 05:18N 29°56' W 090°00'0 0.1
2015-Jul-25 02:32N 29°56' W 090°00'2 1.9
2015-Jul-25 01:27N 29°55' W 089°58'2 0.6
2015-Jul-24 21:22N 29°56' W 090°00'2 1.8
2015-Jul-24 20:20N 29°58' W 090°02'0 0.0
2015-Jul-23 19:21N 29°58' W 090°02'1 1.3
2015-Jul-23 18:33N 29°59' W 090°01'2 0.8
2015-Jul-23 15:33N 29°60' W 089°59'3 3.3
2015-Jul-23 14:32N 29°58' W 090°02'0 0.3
2015-Jul-23 13:31N 29°58' W 090°02'1 0.6
2015-Jul-23 12:32N 29°57' W 090°01'1 0.5
2015-Jul-23 10:16N 29°56' W 090°00'0 0.0
2015-Jul-23 09:31N 29°56' W 090°00'0 0.0
2015-Jul-23 08:11N 29°56' W 090°00'0 0.0
2015-Jul-23 05:28N 29°56' W 090°00'  
Track history (hours):
 
Tides and Currents Weather Stations Pressure Air Temp Water Temp Dewpoint Dewpoint Depression Visibility Wind Speed Wind Dir Waves Ship Positions

Todd G

Owner: Harbor Towing & Fleeting, Inc., Metairie, LA. More information available from US FCC via Universal Licensing System and Coast Guard Vessel Documentation Center.

Last reported at 2015-Aug-01 22:31 UTC. Time now 2015-Aug-02 04:14 UTC.
Position N 29°55' W 089°58'.

Length 16 m.

Type: Towing. MMSI: 366988470.

Date/timePositionNaut miles runAvg speedWind from/ knotsBaromVisibWave heightAir tempDewpointWater temp
2015-Aug-01 22:31N 29°55' W 089°58'1 0.7
2015-Aug-01 21:30N 29°56' W 089°59'3 3.6
2015-Aug-01 20:32N 29°58' W 090°02'1 1.4
2015-Aug-01 19:33N 29°59' W 090°01'0 0.1
2015-Aug-01 18:32N 29°59' W 090°01'5 1.4
2015-Aug-01 15:24N 30°00' W 089°56'5 5.7
2015-Aug-01 14:33N 29°59' W 090°01'2 1.7
2015-Aug-01 13:33N 29°57' W 090°01'1 0.8
2015-Aug-01 12:33N 29°57' W 090°01'1 1.2
2015-Aug-01 11:31N 29°56' W 089°60'3 2.5
2015-Aug-01 10:30N 29°58' W 090°02'3 2.7
2015-Aug-01 09:29N 29°60' W 089°59'3 2.9
2015-Aug-01 08:31N 29°58' W 090°02'1 1.3
2015-Aug-01 07:33N 29°57' W 090°01'1 0.6
2015-Aug-01 05:15N 29°58' W 090°02'1 0.0
2015-Jul-31 15:25N 29°57' W 090°02'1 0.1
2015-Jul-31 01:33N 29°57' W 090°03'4 3.6
2015-Jul-31 00:31N 29°54' W 090°05'0 0.0
2015-Jul-30 23:31N 29°54' W 090°05'0 0.0
2015-Jul-30 22:13N 29°54' W 090°05'  
2015-Jul-28 17:27N 29°56' W 090°00'2 2.1
2015-Jul-28 16:33N 29°58' W 090°02'1 1.2
2015-Jul-28 15:33N 29°59' W 090°01'0 0.4
2015-Jul-28 14:33N 29°59' W 090°01'2 1.5
2015-Jul-28 13:33N 29°58' W 090°02'1 0.9
2015-Jul-28 12:32N 29°57' W 090°01'1 0.0
2015-Jul-27 11:25N 29°56' W 090°00'2 0.3
2015-Jul-27 05:18N 29°55' W 089°59'4 1.0
2015-Jul-27 01:33N 29°58' W 090°02'2 1.9
2015-Jul-27 00:20N 29°60' W 090°00'0 0.2
2015-Jul-26 23:33N 29°60' W 090°00'2 2.2
2015-Jul-26 22:29N 29°58' W 090°02'1 0.9
2015-Jul-26 21:30N 29°57' W 090°01'1 0.9
2015-Jul-26 20:29N 29°56' W 090°00'0 0.0
2015-Jul-26 19:33N 29°56' W 090°00'2 1.9
2015-Jul-26 18:30N 29°58' W 090°02'7 3.2
2015-Jul-26 16:17N 30°01' W 089°54'4 5.9
2015-Jul-26 15:34N 29°60' W 089°59'3 2.8
2015-Jul-26 14:27N 29°58' W 090°02'1 0.9
2015-Jul-26 13:19N 29°57' W 090°01'1 0.0
2015-Jul-25 20:24N 29°57' W 090°02'1 0.6
2015-Jul-25 19:27N 29°58' W 090°02'3 3.0
2015-Jul-25 18:32N 29°60' W 089°59'0 0.5
2015-Jul-25 17:32N 29°60' W 089°59'3 1.1
2015-Jul-25 14:16N 29°57' W 090°01'0 0.0
2015-Jul-25 12:07N 29°57' W 090°01'1 1.5
2015-Jul-25 11:29N 29°58' W 090°02'3 2.4
2015-Jul-25 10:22N 29°60' W 089°59'3 2.6
2015-Jul-25 09:16N 29°58' W 090°02'1 1.5
2015-Jul-25 08:23N 29°57' W 090°01'0 0.4
2015-Jul-25 07:06N 29°56' W 090°00'0 0.0
2015-Jul-25 06:22N 29°56' W 090°00'0 0.0
2015-Jul-25 05:18N 29°56' W 090°00'0 0.1
2015-Jul-25 02:32N 29°56' W 090°00'2 1.9
2015-Jul-25 01:27N 29°55' W 089°58'2 0.6
2015-Jul-24 21:22N 29°56' W 090°00'2 1.8
2015-Jul-24 20:20N 29°58' W 090°02'0 0.0
2015-Jul-23 19:21N 29°58' W 090°02'1 1.3
2015-Jul-23 18:33N 29°59' W 090°01'2 0.8
2015-Jul-23 15:33N 29°60' W 089°59'3 3.3
2015-Jul-23 14:32N 29°58' W 090°02'0 0.3
2015-Jul-23 13:31N 29°58' W 090°02'1 0.6
2015-Jul-23 12:32N 29°57' W 090°01'1 0.5
2015-Jul-23 10:16N 29°56' W 090°00'0 0.0
2015-Jul-23 09:31N 29°56' W 090°00'0 0.0
2015-Jul-23 08:11N 29°56' W 090°00'0 0.0
2015-Jul-23 05:28N 29°56' W 090°00'  

Dump ship's entire track history